Bow Clipper — LAUU4 — position and weather

sailwx.info

Track history (hours):
 
Tides and Currents Weather Stations Pressure Air Temp Water Temp Dewpoint Dewpoint Depression Visibility Wind Speed Wind Dir Waves Ship Positions

Bow Clipper

Last reported at 2015-Jul-16 06:33 UTC. Time now 2015-Jul-31 05:06 UTC.
Position N 29°35' E 032°31'.
Warning: this ship's position is 14 days out of date.

Length 188 m; draft 6.1 m.

Type: Ship (hazmat cat B). MMSI: 258946991.

Date/timePositionNaut miles runAvg speedWind from/ knotsBaromVisibWave heightAir tempDewpointWater temp
2015-Jul-16 06:33N 29°35' E 032°31'3710.6
2015-Jul-16 03:05N 30°12' E 032°34'68 9.0
2015-Jul-15 19:31N 31°20' E 032°22'3 3.5
2015-Jul-15 18:33N 31°22' E 032°19'0 0.1
2015-Jul-15 16:31N 31°22' E 032°19'0 0.0
2015-Jul-15 15:22N 31°22' E 032°19'0 0.0
2015-Jul-15 14:31N 31°22' E 032°19'0 0.0
2015-Jul-15 13:31N 31°22' E 032°19'0 0.0
2015-Jul-15 12:31N 31°22' E 032°19'0 0.0
2015-Jul-15 11:31N 31°22' E 032°19'0 0.0
2015-Jul-15 10:31N 31°22' E 032°19'0 0.0
2015-Jul-15 09:19N 31°22' E 032°19'0 0.0
2015-Jul-14 18:28N 31°22' E 032°19'0 0.0
2015-Jul-14 14:32N 31°21' E 032°19'19 8.9
2015-Jul-14 12:22N 31°37' E 032°06'1113.3
2015-Jul-14 11:33N 31°45' E 031°57'1413.7
2015-Jul-14 10:31N 31°52' E 031°42'3012.3
2015-Jul-14 08:06N 31°58' E 031°08'8813.5
2015-Jul-14 01:33N 32°23' E 029°28'4013.3
2015-Jul-13 22:32N 32°33' E 028°42'54013.5
2015-Jul-12 06:32N 35°05' E 018°19'1313.3
2015-Jul-12 05:33N 35°09' E 018°03'1313.5
2015-Jul-12 04:33N 35°13' E 017°48'1413.6
2015-Jul-12 03:33N 35°17' E 017°32'4613.7
2015-Jul-12 00:13N 35°30' E 016°38'913.7
2015-Jul-11 23:33N 35°32' E 016°27'1413.8
2015-Jul-11 22:33N 35°36' E 016°11'1413.8
2015-Jul-11 21:30N 35°40' E 015°54'1313.7
2015-Jul-11 20:33N 35°44' E 015°38'3113.9
2015-Jul-11 18:17N 35°52' E 015°01'1013.7
2015-Jul-11 17:33N 35°55' E 014°49'1313.4
2015-Jul-11 16:33N 35°59' E 014°33'1111.3
2015-Jul-11 15:33N 36°06' E 014°23'1413.6
2015-Jul-11 14:33N 36°12' E 014°08'1413.9
2015-Jul-11 13:33N 36°19' E 013°52'1414.1
2015-Jul-11 12:33N 36°24' E 013°37'2114.2
2015-Jul-11 11:05N 36°33' E 013°13'814.3
2015-Jul-11 10:33N 36°36' E 013°05'3214.4
2015-Jul-11 08:20N 36°50' E 012°28'1114.7
2015-Jul-11 07:33N 36°54' E 012°15'2014.3
2015-Jul-11 06:11N 37°03' E 011°53'1114.4
2015-Jul-11 05:24N 37°08' E 011°41'33913.5
2015-Jul-10 04:21N 37°15' E 004°35'1114.2
2015-Jul-10 03:33N 37°15' E 004°21'1413.8
2015-Jul-10 02:33N 37°15' E 004°03'1614.1
2015-Jul-10 01:26N 37°14' E 003°44'1314.4
2015-Jul-10 00:33N 37°13' E 003°27'1514.0
2015-Jul-09 23:30N 37°12' E 003°09'1314.1
2015-Jul-09 22:33N 37°11' E 002°52'1414.1
2015-Jul-09 21:33N 37°08' E 002°35'1413.9
2015-Jul-09 20:32N 37°05' E 002°18'1313.6
2015-Jul-09 19:33N 37°02' E 002°01'1312.7
2015-Jul-09 18:33N 36°59' E 001°46'1312.6
2015-Jul-09 17:33N 36°57' E 001°30'1512.9
2015-Jul-09 16:23N 36°55' E 001°12'1113.5
2015-Jul-09 15:33N 36°53' E 000°58'1413.6
2015-Jul-09 14:33N 36°50' E 000°41'1514.8
2015-Jul-09 13:33N 36°46' E 000°23'1413.8
2015-Jul-09 12:33N 36°44' E 000°06'1613.8
2015-Jul-09 11:25N 36°40' W 000°13'1213.7
2015-Jul-09 10:34N 36°38' W 000°27'1413.7
2015-Jul-09 09:33N 36°35' W 000°44'4 4.3
2015-Jul-09 08:33N 36°34' W 000°49'2 2.1
2015-Jul-09 07:33N 36°35' W 000°47'1413.6
2015-Jul-09 06:33N 36°32' W 001°03'1313.5
2015-Jul-09 05:33N 36°30' W 001°20'1513.6
2015-Jul-09 04:28N 36°27' W 001°38'1313.7
2015-Jul-09 03:34N 36°25' W 001°53'1413.7
2015-Jul-09 02:34N 36°23' W 002°10'1413.7
2015-Jul-09 01:33N 36°20' W 002°27'1413.9
2015-Jul-09 00:33N 36°18' W 002°44'1414.1
2015-Jul-08 23:32N 36°16' W 003°01'10515.0
2015-Jul-08 16:33N 36°00' W 005°10'1111.6
2015-Jul-08 15:33N 36°05' W 005°23'4 3.5
2015-Jul-08 14:31N 36°08' W 005°22'0 0.1
2015-Jul-08 13:32N 36°08' W 005°22'111 3.0
2015-Jul-07 00:24N 36°02' W 007°40'1213.8
2015-Jul-06 23:33N 36°04' W 007°54'1413.9
2015-Jul-06 22:33N 36°05' W 008°11'1413.6
2015-Jul-06 21:33N 36°07' W 008°28'1413.7
2015-Jul-06 20:33N 36°09' W 008°45'1313.5
2015-Jul-06 19:33N 36°10' W 009°01'1413.6
2015-Jul-06 18:33N 36°15' W 009°17'1413.7
2015-Jul-06 17:33N 36°21' W 009°33'1413.7
2015-Jul-06 16:33N 36°26' W 009°48'1313.4
2015-Jul-06 15:33N 36°31' W 010°04'1313.3
2015-Jul-06 14:33N 36°36' W 010°19'1313.4
2015-Jul-06 13:33N 36°40' W 010°35'1413.6
2015-Jul-06 12:33N 36°46' W 010°50'1313.3
2015-Jul-06 11:33N 36°51' W 011°06'1413.7
2015-Jul-06 10:33N 36°56' W 011°21'1313.4
2015-Jul-06 09:33N 37°01' W 011°37'1313.4
2015-Jul-06 08:33N 37°06' W 011°53'1313.2
2015-Jul-06 07:33N 37°12' W 012°08'1313.4
2015-Jul-06 06:33N 37°17' W 012°23'  
Track history (hours):
 
Tides and Currents Weather Stations Pressure Air Temp Water Temp Dewpoint Dewpoint Depression Visibility Wind Speed Wind Dir Waves Ship Positions

Bow Clipper

Last reported at 2015-Jul-16 06:33 UTC. Time now 2015-Jul-31 05:06 UTC.
Position N 29°35' E 032°31'.
Warning: this ship's position is 14 days out of date.

Length 188 m; draft 6.1 m.

Type: Ship (hazmat cat B). MMSI: 258946991.

Date/timePositionNaut miles runAvg speedWind from/ knotsBaromVisibWave heightAir tempDewpointWater temp
2015-Jul-16 06:33N 29°35' E 032°31'3710.6
2015-Jul-16 03:05N 30°12' E 032°34'68 9.0
2015-Jul-15 19:31N 31°20' E 032°22'3 3.5
2015-Jul-15 18:33N 31°22' E 032°19'0 0.1
2015-Jul-15 16:31N 31°22' E 032°19'0 0.0
2015-Jul-15 15:22N 31°22' E 032°19'0 0.0
2015-Jul-15 14:31N 31°22' E 032°19'0 0.0
2015-Jul-15 13:31N 31°22' E 032°19'0 0.0
2015-Jul-15 12:31N 31°22' E 032°19'0 0.0
2015-Jul-15 11:31N 31°22' E 032°19'0 0.0
2015-Jul-15 10:31N 31°22' E 032°19'0 0.0
2015-Jul-15 09:19N 31°22' E 032°19'0 0.0
2015-Jul-14 18:28N 31°22' E 032°19'0 0.0
2015-Jul-14 14:32N 31°21' E 032°19'19 8.9
2015-Jul-14 12:22N 31°37' E 032°06'1113.3
2015-Jul-14 11:33N 31°45' E 031°57'1413.7
2015-Jul-14 10:31N 31°52' E 031°42'3012.3
2015-Jul-14 08:06N 31°58' E 031°08'8813.5
2015-Jul-14 01:33N 32°23' E 029°28'4013.3
2015-Jul-13 22:32N 32°33' E 028°42'54013.5
2015-Jul-12 06:32N 35°05' E 018°19'1313.3
2015-Jul-12 05:33N 35°09' E 018°03'1313.5
2015-Jul-12 04:33N 35°13' E 017°48'1413.6
2015-Jul-12 03:33N 35°17' E 017°32'4613.7
2015-Jul-12 00:13N 35°30' E 016°38'913.7
2015-Jul-11 23:33N 35°32' E 016°27'1413.8
2015-Jul-11 22:33N 35°36' E 016°11'1413.8
2015-Jul-11 21:30N 35°40' E 015°54'1313.7
2015-Jul-11 20:33N 35°44' E 015°38'3113.9
2015-Jul-11 18:17N 35°52' E 015°01'1013.7
2015-Jul-11 17:33N 35°55' E 014°49'1313.4
2015-Jul-11 16:33N 35°59' E 014°33'1111.3
2015-Jul-11 15:33N 36°06' E 014°23'1413.6
2015-Jul-11 14:33N 36°12' E 014°08'1413.9
2015-Jul-11 13:33N 36°19' E 013°52'1414.1
2015-Jul-11 12:33N 36°24' E 013°37'2114.2
2015-Jul-11 11:05N 36°33' E 013°13'814.3
2015-Jul-11 10:33N 36°36' E 013°05'3214.4
2015-Jul-11 08:20N 36°50' E 012°28'1114.7
2015-Jul-11 07:33N 36°54' E 012°15'2014.3
2015-Jul-11 06:11N 37°03' E 011°53'1114.4
2015-Jul-11 05:24N 37°08' E 011°41'33913.5
2015-Jul-10 04:21N 37°15' E 004°35'1114.2
2015-Jul-10 03:33N 37°15' E 004°21'1413.8
2015-Jul-10 02:33N 37°15' E 004°03'1614.1
2015-Jul-10 01:26N 37°14' E 003°44'1314.4
2015-Jul-10 00:33N 37°13' E 003°27'1514.0
2015-Jul-09 23:30N 37°12' E 003°09'1314.1
2015-Jul-09 22:33N 37°11' E 002°52'1414.1
2015-Jul-09 21:33N 37°08' E 002°35'1413.9
2015-Jul-09 20:32N 37°05' E 002°18'1313.6
2015-Jul-09 19:33N 37°02' E 002°01'1312.7
2015-Jul-09 18:33N 36°59' E 001°46'1312.6
2015-Jul-09 17:33N 36°57' E 001°30'1512.9
2015-Jul-09 16:23N 36°55' E 001°12'1113.5
2015-Jul-09 15:33N 36°53' E 000°58'1413.6
2015-Jul-09 14:33N 36°50' E 000°41'1514.8
2015-Jul-09 13:33N 36°46' E 000°23'1413.8
2015-Jul-09 12:33N 36°44' E 000°06'1613.8
2015-Jul-09 11:25N 36°40' W 000°13'1213.7
2015-Jul-09 10:34N 36°38' W 000°27'1413.7
2015-Jul-09 09:33N 36°35' W 000°44'4 4.3
2015-Jul-09 08:33N 36°34' W 000°49'2 2.1
2015-Jul-09 07:33N 36°35' W 000°47'1413.6
2015-Jul-09 06:33N 36°32' W 001°03'1313.5
2015-Jul-09 05:33N 36°30' W 001°20'1513.6
2015-Jul-09 04:28N 36°27' W 001°38'1313.7
2015-Jul-09 03:34N 36°25' W 001°53'1413.7
2015-Jul-09 02:34N 36°23' W 002°10'1413.7
2015-Jul-09 01:33N 36°20' W 002°27'1413.9
2015-Jul-09 00:33N 36°18' W 002°44'1414.1
2015-Jul-08 23:32N 36°16' W 003°01'10515.0
2015-Jul-08 16:33N 36°00' W 005°10'1111.6
2015-Jul-08 15:33N 36°05' W 005°23'4 3.5
2015-Jul-08 14:31N 36°08' W 005°22'0 0.1
2015-Jul-08 13:32N 36°08' W 005°22'111 3.0
2015-Jul-07 00:24N 36°02' W 007°40'1213.8
2015-Jul-06 23:33N 36°04' W 007°54'1413.9
2015-Jul-06 22:33N 36°05' W 008°11'1413.6
2015-Jul-06 21:33N 36°07' W 008°28'1413.7
2015-Jul-06 20:33N 36°09' W 008°45'1313.5
2015-Jul-06 19:33N 36°10' W 009°01'1413.6
2015-Jul-06 18:33N 36°15' W 009°17'1413.7
2015-Jul-06 17:33N 36°21' W 009°33'1413.7
2015-Jul-06 16:33N 36°26' W 009°48'1313.4
2015-Jul-06 15:33N 36°31' W 010°04'1313.3
2015-Jul-06 14:33N 36°36' W 010°19'1313.4
2015-Jul-06 13:33N 36°40' W 010°35'1413.6
2015-Jul-06 12:33N 36°46' W 010°50'1313.3
2015-Jul-06 11:33N 36°51' W 011°06'1413.7
2015-Jul-06 10:33N 36°56' W 011°21'1313.4
2015-Jul-06 09:33N 37°01' W 011°37'1313.4
2015-Jul-06 08:33N 37°06' W 011°53'1313.2
2015-Jul-06 07:33N 37°12' W 012°08'1313.4
2015-Jul-06 06:33N 37°17' W 012°23'  

Dump ship's entire track history